Spike — 9HA2419 — position and weather

sailwx.info

Track history (hours):
 
Tides and Currents Weather Stations Pressure Air Temp Water Temp Dewpoint Dewpoint Depression Visibility Wind Speed Wind Dir Waves Ship Positions

Spike

Last reported at 2017-Oct-14 19:23 UTC. Time now 2017-Oct-18 06:11 UTC.
Position N 40°22' W 073°14'.

Length 249 m; draft 8.1 m.

Type: Ship (hazmat cat A). MMSI: 248571000.

Date/timePositionNaut miles runAvg speedWind from/ knotsBaromVisibWave heightAir tempDewpointWater temp
2017-Oct-14 19:23N 40°22' W 073°14'2613.3
2017-Oct-14 17:24N 40°26' W 073°48'810.4
2017-Oct-14 16:40N 40°28' W 073°58'210.5
2017-Oct-14 16:30N 40°29' W 073°60'12 7.1
2017-Oct-14 14:48N 40°33' W 074°15'2 5.1
2017-Oct-14 14:26N 40°34' W 074°13'2 4.8
2017-Oct-14 14:00N 40°36' W 074°12'2 4.2
2017-Oct-14 13:30N 40°38' W 074°12'0 0.0
2017-Oct-13 07:23N 40°38' W 074°12'0 0.6
2017-Oct-13 07:00N 40°38' W 074°12'2 4.1
2017-Oct-13 06:30N 40°39' W 074°09'3 5.9
2017-Oct-13 06:00N 40°39' W 074°05'3 5.1
2017-Oct-13 05:30N 40°37' W 074°03'4 8.9
2017-Oct-13 05:00N 40°33' W 074°02'4 8.9
2017-Oct-13 04:31N 40°30' W 073°57'611.5
2017-Oct-13 03:59N 40°28' W 073°50'3 4.8
2017-Oct-13 03:15N 40°27' W 073°45'1 2.8
2017-Oct-13 02:53N 40°27' W 073°44'1 3.5
2017-Oct-13 02:30N 40°27' W 073°42'  
Track history (hours):
 
Tides and Currents Weather Stations Pressure Air Temp Water Temp Dewpoint Dewpoint Depression Visibility Wind Speed Wind Dir Waves Ship Positions

Spike

Last reported at 2017-Oct-14 19:23 UTC. Time now 2017-Oct-18 06:11 UTC.
Position N 40°22' W 073°14'.

Length 249 m; draft 8.1 m.

Type: Ship (hazmat cat A). MMSI: 248571000.

Date/timePositionNaut miles runAvg speedWind from/ knotsBaromVisibWave heightAir tempDewpointWater temp
2017-Oct-14 19:23N 40°22' W 073°14'2613.3
2017-Oct-14 17:24N 40°26' W 073°48'810.4
2017-Oct-14 16:40N 40°28' W 073°58'210.5
2017-Oct-14 16:30N 40°29' W 073°60'12 7.1
2017-Oct-14 14:48N 40°33' W 074°15'2 5.1
2017-Oct-14 14:26N 40°34' W 074°13'2 4.8
2017-Oct-14 14:00N 40°36' W 074°12'2 4.2
2017-Oct-14 13:30N 40°38' W 074°12'0 0.0
2017-Oct-13 07:23N 40°38' W 074°12'0 0.6
2017-Oct-13 07:00N 40°38' W 074°12'2 4.1
2017-Oct-13 06:30N 40°39' W 074°09'3 5.9
2017-Oct-13 06:00N 40°39' W 074°05'3 5.1
2017-Oct-13 05:30N 40°37' W 074°03'4 8.9
2017-Oct-13 05:00N 40°33' W 074°02'4 8.9
2017-Oct-13 04:31N 40°30' W 073°57'611.5
2017-Oct-13 03:59N 40°28' W 073°50'3 4.8
2017-Oct-13 03:15N 40°27' W 073°45'1 2.8
2017-Oct-13 02:53N 40°27' W 073°44'1 3.5
2017-Oct-13 02:30N 40°27' W 073°42'  

Dump ship's entire track history